sensor_id;sensor_type;location;lat;lon;timestamp;P1;durP1;ratioP1;P2;durP2;ratioP2
27612;SDS011;15036;48.094;-1.690;2023-01-28T00:00:51;17.63;;;10.45;;
27612;SDS011;15036;48.094;-1.690;2023-01-28T00:03:16;17.15;;;10.93;;
27612;SDS011;15036;48.094;-1.690;2023-01-28T00:05:42;17.95;;;10.68;;
27612;SDS011;15036;48.094;-1.690;2023-01-28T00:08:07;15.43;;;10.85;;
27612;SDS011;15036;48.094;-1.690;2023-01-28T00:10:32;16.17;;;9.75;;
27612;SDS011;15036;48.094;-1.690;2023-01-28T00:12:58;15.43;;;9.82;;
27612;SDS011;15036;48.094;-1.690;2023-01-28T00:15:23;18.00;;;10.77;;
27612;SDS011;15036;48.094;-1.690;2023-01-28T00:17:49;15.10;;;9.40;;
27612;SDS011;15036;48.094;-1.690;2023-01-28T00:20:15;17.55;;;10.43;;
27612;SDS011;15036;48.094;-1.690;2023-01-28T00:22:45;15.35;;;9.65;;
27612;SDS011;15036;48.094;-1.690;2023-01-28T00:25:12;20.52;;;10.48;;
27612;SDS011;15036;48.094;-1.690;2023-01-28T00:27:37;13.20;;;9.27;;
27612;SDS011;15036;48.094;-1.690;2023-01-28T00:30:03;13.85;;;9.13;;
27612;SDS011;15036;48.094;-1.690;2023-01-28T00:32:28;16.33;;;9.45;;
27612;SDS011;15036;48.094;-1.690;2023-01-28T00:34:54;14.43;;;9.60;;
27612;SDS011;15036;48.094;-1.690;2023-01-28T00:37:19;15.38;;;8.75;;
27612;SDS011;15036;48.094;-1.690;2023-01-28T00:39:45;15.82;;;9.40;;
27612;SDS011;15036;48.094;-1.690;2023-01-28T00:42:10;15.20;;;9.63;;
27612;SDS011;15036;48.094;-1.690;2023-01-28T00:44:36;15.43;;;8.43;;
27612;SDS011;15036;48.094;-1.690;2023-01-28T00:47:01;12.73;;;8.85;;
27612;SDS011;15036;48.094;-1.690;2023-01-28T00:49:27;14.43;;;8.75;;
27612;SDS011;15036;48.094;-1.690;2023-01-28T00:51:52;13.75;;;8.80;;
27612;SDS011;15036;48.094;-1.690;2023-01-28T00:54:18;15.20;;;8.85;;
27612;SDS011;15036;48.094;-1.690;2023-01-28T00:56:43;15.38;;;8.57;;
27612;SDS011;15036;48.094;-1.690;2023-01-28T00:59:09;15.10;;;9.32;;
27612;SDS011;15036;48.094;-1.690;2023-01-28T01:01:34;13.48;;;8.50;;
27612;SDS011;15036;48.094;-1.690;2023-01-28T01:03:59;15.90;;;9.10;;
27612;SDS011;15036;48.094;-1.690;2023-01-28T01:06:29;14.18;;;8.63;;
27612;SDS011;15036;48.094;-1.690;2023-01-28T01:08:56;16.13;;;8.80;;
27612;SDS011;15036;48.094;-1.690;2023-01-28T01:11:22;14.45;;;8.43;;
27612;SDS011;15036;48.094;-1.690;2023-01-28T01:13:54;13.95;;;8.63;;
27612;SDS011;15036;48.094;-1.690;2023-01-28T01:16:21;12.23;;;8.50;;
27612;SDS011;15036;48.094;-1.690;2023-01-28T01:18:49;14.02;;;7.50;;
27612;SDS011;15036;48.094;-1.690;2023-01-28T01:21:17;12.93;;;7.78;;
27612;SDS011;15036;48.094;-1.690;2023-01-28T01:23:44;14.13;;;7.88;;
27612;SDS011;15036;48.094;-1.690;2023-01-28T01:26:10;14.23;;;7.93;;
27612;SDS011;15036;48.094;-1.690;2023-01-28T01:28:36;13.43;;;8.18;;
27612;SDS011;15036;48.094;-1.690;2023-01-28T01:31:06;13.88;;;7.80;;
27612;SDS011;15036;48.094;-1.690;2023-01-28T01:33:33;12.63;;;8.07;;
27612;SDS011;15036;48.094;-1.690;2023-01-28T01:35:58;10.50;;;7.45;;
27612;SDS011;15036;48.094;-1.690;2023-01-28T01:38:24;11.98;;;7.68;;
27612;SDS011;15036;48.094;-1.690;2023-01-28T01:40:50;12.88;;;7.90;;
27612;SDS011;15036;48.094;-1.690;2023-01-28T01:43:17;13.07;;;7.47;;
27612;SDS011;15036;48.094;-1.690;2023-01-28T01:45:43;13.07;;;7.10;;
27612;SDS011;15036;48.094;-1.690;2023-01-28T01:50:47;11.85;;;7.03;;
27612;SDS011;15036;48.094;-1.690;2023-01-28T01:53:19;12.25;;;6.57;;
27612;SDS011;15036;48.094;-1.690;2023-01-28T01:55:49;11.75;;;6.80;;
27612;SDS011;15036;48.094;-1.690;2023-01-28T01:58:17;14.50;;;6.75;;
27612;SDS011;15036;48.094;-1.690;2023-01-28T02:00:45;11.05;;;6.20;;
27612;SDS011;15036;48.094;-1.690;2023-01-28T02:03:11;10.23;;;6.40;;
27612;SDS011;15036;48.094;-1.690;2023-01-28T02:05:37;12.82;;;6.35;;
27612;SDS011;15036;48.094;-1.690;2023-01-28T02:08:04;10.80;;;5.80;;
27612;SDS011;15036;48.094;-1.690;2023-01-28T02:10:51;11.18;;;6.22;;
27612;SDS011;15036;48.094;-1.690;2023-01-28T02:13:26;10.32;;;5.38;;
27612;SDS011;15036;48.094;-1.690;2023-01-28T02:15:55;10.40;;;5.13;;
27612;SDS011;15036;48.094;-1.690;2023-01-28T02:18:24;12.60;;;6.05;;
27612;SDS011;15036;48.094;-1.690;2023-01-28T02:35:34;14.30;;;4.85;;
27612;SDS011;15036;48.094;-1.690;2023-01-28T02:40:41;8.70;;;4.10;;
27612;SDS011;15036;48.094;-1.690;2023-01-28T02:45:55;12.07;;;3.92;;
27612;SDS011;15036;48.094;-1.690;2023-01-28T02:48:39;6.53;;;3.83;;
27612;SDS011;15036;48.094;-1.690;2023-01-28T02:51:08;9.50;;;4.00;;
27612;SDS011;15036;48.094;-1.690;2023-01-28T02:53:54;8.05;;;3.85;;
27612;SDS011;15036;48.094;-1.690;2023-01-28T02:56:33;9.95;;;4.47;;
27612;SDS011;15036;48.094;-1.690;2023-01-28T02:59:05;12.93;;;4.57;;
27612;SDS011;15036;48.094;-1.690;2023-01-28T03:02:41;9.63;;;4.53;;
27612;SDS011;15036;48.094;-1.690;2023-01-28T03:07:28;12.50;;;4.45;;
27612;SDS011;15036;48.094;-1.690;2023-01-28T03:09:57;11.18;;;4.18;;
27612;SDS011;15036;48.094;-1.690;2023-01-28T03:12:28;10.65;;;5.05;;
27612;SDS011;15036;48.094;-1.690;2023-01-28T03:15:18;8.23;;;4.80;;
27612;SDS011;15036;48.094;-1.690;2023-01-28T03:24:04;9.50;;;5.18;;
27612;SDS011;15036;48.094;-1.690;2023-01-28T03:29:45;8.90;;;5.88;;
27612;SDS011;15036;48.094;-1.690;2023-01-28T03:32:31;7.80;;;5.25;;
27612;SDS011;15036;48.094;-1.690;2023-01-28T03:35:16;9.52;;;5.10;;
27612;SDS011;15036;48.094;-1.690;2023-01-28T03:38:04;10.07;;;5.10;;
27612;SDS011;15036;48.094;-1.690;2023-01-28T03:41:18;8.73;;;5.18;;
27612;SDS011;15036;48.094;-1.690;2023-01-28T03:43:35;10.73;;;5.45;;
27612;SDS011;15036;48.094;-1.690;2023-01-28T03:46:01;10.88;;;5.32;;
27612;SDS011;15036;48.094;-1.690;2023-01-28T03:48:30;11.93;;;5.65;;
27612;SDS011;15036;48.094;-1.690;2023-01-28T03:50:56;12.23;;;5.82;;
27612;SDS011;15036;48.094;-1.690;2023-01-28T03:53:24;9.85;;;6.13;;
27612;SDS011;15036;48.094;-1.690;2023-01-28T03:55:50;9.63;;;5.95;;
27612;SDS011;15036;48.094;-1.690;2023-01-28T03:58:17;9.07;;;5.57;;
27612;SDS011;15036;48.094;-1.690;2023-01-28T04:00:43;10.50;;;5.85;;
27612;SDS011;15036;48.094;-1.690;2023-01-28T04:03:15;9.98;;;6.10;;
27612;SDS011;15036;48.094;-1.690;2023-01-28T04:06:03;10.85;;;5.55;;
27612;SDS011;15036;48.094;-1.690;2023-01-28T04:08:30;12.55;;;5.70;;
27612;SDS011;15036;48.094;-1.690;2023-01-28T04:10:55;12.82;;;6.18;;
27612;SDS011;15036;48.094;-1.690;2023-01-28T04:13:21;9.90;;;5.93;;
27612;SDS011;15036;48.094;-1.690;2023-01-28T04:15:46;10.48;;;5.68;;
27612;SDS011;15036;48.094;-1.690;2023-01-28T04:18:12;10.38;;;5.93;;
27612;SDS011;15036;48.094;-1.690;2023-01-28T04:20:38;11.70;;;6.20;;
27612;SDS011;15036;48.094;-1.690;2023-01-28T04:23:04;12.50;;;6.75;;
27612;SDS011;15036;48.094;-1.690;2023-01-28T04:25:31;11.35;;;5.70;;
27612;SDS011;15036;48.094;-1.690;2023-01-28T04:27:58;11.23;;;5.72;;
27612;SDS011;15036;48.094;-1.690;2023-01-28T04:30:23;10.68;;;5.95;;
27612;SDS011;15036;48.094;-1.690;2023-01-28T04:32:48;9.80;;;6.05;;
27612;SDS011;15036;48.094;-1.690;2023-01-28T04:35:17;12.23;;;6.35;;
27612;SDS011;15036;48.094;-1.690;2023-01-28T04:37:43;9.70;;;6.40;;
27612;SDS011;15036;48.094;-1.690;2023-01-28T04:40:10;11.93;;;6.65;;
27612;SDS011;15036;48.094;-1.690;2023-01-28T04:42:37;9.52;;;6.85;;
27612;SDS011;15036;48.094;-1.690;2023-01-28T04:45:03;10.95;;;6.97;;
27612;SDS011;15036;48.094;-1.690;2023-01-28T04:47:29;10.38;;;6.03;;
27612;SDS011;15036;48.094;-1.690;2023-01-28T04:49:54;11.07;;;7.10;;
27612;SDS011;15036;48.094;-1.690;2023-01-28T04:52:19;10.75;;;6.78;;
27612;SDS011;15036;48.094;-1.690;2023-01-28T04:54:45;9.95;;;6.45;;
27612;SDS011;15036;48.094;-1.690;2023-01-28T04:57:10;11.80;;;6.93;;
27612;SDS011;15036;48.094;-1.690;2023-01-28T04:59:35;12.07;;;6.88;;
27612;SDS011;15036;48.094;-1.690;2023-01-28T05:02:01;11.63;;;7.22;;
27612;SDS011;15036;48.094;-1.690;2023-01-28T05:04:26;12.13;;;7.13;;
27612;SDS011;15036;48.094;-1.690;2023-01-28T05:06:51;13.50;;;7.13;;
27612;SDS011;15036;48.094;-1.690;2023-01-28T05:09:17;11.93;;;6.85;;
27612;SDS011;15036;48.094;-1.690;2023-01-28T05:11:42;9.23;;;7.07;;
27612;SDS011;15036;48.094;-1.690;2023-01-28T05:14:08;11.80;;;7.32;;
27612;SDS011;15036;48.094;-1.690;2023-01-28T05:16:33;10.80;;;7.03;;
27612;SDS011;15036;48.094;-1.690;2023-01-28T05:18:59;10.57;;;6.55;;
27612;SDS011;15036;48.094;-1.690;2023-01-28T05:21:25;11.00;;;6.63;;
27612;SDS011;15036;48.094;-1.690;2023-01-28T05:23:51;10.95;;;6.55;;
27612;SDS011;15036;48.094;-1.690;2023-01-28T05:26:16;8.45;;;6.32;;
27612;SDS011;15036;48.094;-1.690;2023-01-28T05:28:41;11.02;;;6.45;;
27612;SDS011;15036;48.094;-1.690;2023-01-28T05:31:07;11.45;;;6.75;;
27612;SDS011;15036;48.094;-1.690;2023-01-28T05:33:33;11.15;;;6.57;;
27612;SDS011;15036;48.094;-1.690;2023-01-28T05:35:59;10.50;;;7.20;;
27612;SDS011;15036;48.094;-1.690;2023-01-28T05:38:24;13.57;;;7.10;;
27612;SDS011;15036;48.094;-1.690;2023-01-28T05:40:50;13.00;;;7.00;;
27612;SDS011;15036;48.094;-1.690;2023-01-28T05:43:15;11.77;;;7.25;;
27612;SDS011;15036;48.094;-1.690;2023-01-28T05:45:40;12.73;;;7.93;;
27612;SDS011;15036;48.094;-1.690;2023-01-28T05:48:06;9.57;;;7.07;;
27612;SDS011;15036;48.094;-1.690;2023-01-28T05:50:31;10.13;;;6.90;;
27612;SDS011;15036;48.094;-1.690;2023-01-28T05:52:57;11.93;;;7.10;;
27612;SDS011;15036;48.094;-1.690;2023-01-28T05:55:22;11.63;;;7.35;;
27612;SDS011;15036;48.094;-1.690;2023-01-28T05:57:48;11.95;;;7.75;;
27612;SDS011;15036;48.094;-1.690;2023-01-28T06:00:14;11.40;;;7.75;;
27612;SDS011;15036;48.094;-1.690;2023-01-28T06:02:40;11.10;;;7.75;;
27612;SDS011;15036;48.094;-1.690;2023-01-28T06:05:06;14.30;;;7.90;;
27612;SDS011;15036;48.094;-1.690;2023-01-28T06:07:32;12.55;;;8.05;;
27612;SDS011;15036;48.094;-1.690;2023-01-28T06:09:58;13.05;;;8.85;;
27612;SDS011;15036;48.094;-1.690;2023-01-28T06:12:23;13.70;;;8.13;;
27612;SDS011;15036;48.094;-1.690;2023-01-28T06:14:48;14.38;;;8.13;;
27612;SDS011;15036;48.094;-1.690;2023-01-28T06:17:14;12.27;;;8.23;;
27612;SDS011;15036;48.094;-1.690;2023-01-28T06:19:39;12.82;;;8.18;;
27612;SDS011;15036;48.094;-1.690;2023-01-28T06:22:05;11.63;;;8.38;;
27612;SDS011;15036;48.094;-1.690;2023-01-28T06:24:30;13.32;;;7.95;;
27612;SDS011;15036;48.094;-1.690;2023-01-28T06:26:55;17.50;;;8.48;;
27612;SDS011;15036;48.094;-1.690;2023-01-28T06:29:21;12.52;;;8.75;;
27612;SDS011;15036;48.094;-1.690;2023-01-28T06:31:46;15.05;;;9.75;;
27612;SDS011;15036;48.094;-1.690;2023-01-28T06:34:11;13.93;;;9.10;;
27612;SDS011;15036;48.094;-1.690;2023-01-28T06:36:37;13.90;;;9.25;;
27612;SDS011;15036;48.094;-1.690;2023-01-28T06:39:03;13.07;;;8.90;;
27612;SDS011;15036;48.094;-1.690;2023-01-28T06:41:29;13.88;;;8.80;;
27612;SDS011;15036;48.094;-1.690;2023-01-28T06:43:54;13.82;;;9.13;;
27612;SDS011;15036;48.094;-1.690;2023-01-28T06:46:19;14.02;;;9.23;;
27612;SDS011;15036;48.094;-1.690;2023-01-28T06:48:45;15.32;;;9.73;;
27612;SDS011;15036;48.094;-1.690;2023-01-28T06:51:10;14.75;;;9.25;;
27612;SDS011;15036;48.094;-1.690;2023-01-28T06:53:35;16.45;;;9.52;;
27612;SDS011;15036;48.094;-1.690;2023-01-28T06:56:01;13.93;;;9.57;;
27612;SDS011;15036;48.094;-1.690;2023-01-28T06:58:26;18.38;;;10.40;;
27612;SDS011;15036;48.094;-1.690;2023-01-28T07:00:52;16.58;;;9.90;;
27612;SDS011;15036;48.094;-1.690;2023-01-28T07:03:18;14.45;;;9.70;;
27612;SDS011;15036;48.094;-1.690;2023-01-28T07:05:43;12.52;;;9.10;;
27612;SDS011;15036;48.094;-1.690;2023-01-28T07:08:08;15.05;;;9.30;;
27612;SDS011;15036;48.094;-1.690;2023-01-28T07:10:34;13.63;;;9.30;;
27612;SDS011;15036;48.094;-1.690;2023-01-28T07:12:59;14.20;;;9.68;;
27612;SDS011;15036;48.094;-1.690;2023-01-28T07:15:25;15.15;;;10.07;;
27612;SDS011;15036;48.094;-1.690;2023-01-28T07:17:50;13.90;;;9.73;;
27612;SDS011;15036;48.094;-1.690;2023-01-28T07:20:15;13.27;;;9.40;;
27612;SDS011;15036;48.094;-1.690;2023-01-28T07:22:41;14.93;;;9.30;;
27612;SDS011;15036;48.094;-1.690;2023-01-28T07:25:08;12.05;;;9.70;;
27612;SDS011;15036;48.094;-1.690;2023-01-28T07:27:34;13.18;;;9.93;;
27612;SDS011;15036;48.094;-1.690;2023-01-28T07:30:00;15.32;;;10.25;;
27612;SDS011;15036;48.094;-1.690;2023-01-28T07:32:25;16.05;;;9.73;;
27612;SDS011;15036;48.094;-1.690;2023-01-28T07:34:51;19.27;;;10.80;;
27612;SDS011;15036;48.094;-1.690;2023-01-28T07:37:17;15.18;;;10.10;;
27612;SDS011;15036;48.094;-1.690;2023-01-28T07:39:43;19.58;;;10.75;;
27612;SDS011;15036;48.094;-1.690;2023-01-28T07:42:08;18.30;;;10.82;;
27612;SDS011;15036;48.094;-1.690;2023-01-28T07:44:34;15.63;;;11.02;;
27612;SDS011;15036;48.094;-1.690;2023-01-28T07:47:00;15.45;;;10.77;;
27612;SDS011;15036;48.094;-1.690;2023-01-28T07:49:26;18.48;;;11.68;;
27612;SDS011;15036;48.094;-1.690;2023-01-28T07:51:51;19.10;;;11.50;;
27612;SDS011;15036;48.094;-1.690;2023-01-28T07:54:17;14.75;;;10.98;;
27612;SDS011;15036;48.094;-1.690;2023-01-28T07:56:42;15.60;;;11.88;;
27612;SDS011;15036;48.094;-1.690;2023-01-28T07:59:07;18.15;;;11.98;;
27612;SDS011;15036;48.094;-1.690;2023-01-28T08:01:33;17.52;;;11.82;;
27612;SDS011;15036;48.094;-1.690;2023-01-28T08:03:58;19.40;;;11.88;;
27612;SDS011;15036;48.094;-1.690;2023-01-28T08:06:23;16.90;;;11.77;;
27612;SDS011;15036;48.094;-1.690;2023-01-28T08:08:49;16.77;;;11.90;;
27612;SDS011;15036;48.094;-1.690;2023-01-28T08:11:14;17.42;;;12.40;;
27612;SDS011;15036;48.094;-1.690;2023-01-28T08:13:39;17.92;;;12.30;;
27612;SDS011;15036;48.094;-1.690;2023-01-28T08:16:05;16.30;;;11.95;;
27612;SDS011;15036;48.094;-1.690;2023-01-28T08:18:31;19.65;;;12.93;;
27612;SDS011;15036;48.094;-1.690;2023-01-28T08:20:56;20.30;;;12.00;;
27612;SDS011;15036;48.094;-1.690;2023-01-28T08:23:23;18.08;;;12.70;;
27612;SDS011;15036;48.094;-1.690;2023-01-28T08:25:50;18.60;;;12.88;;
27612;SDS011;15036;48.094;-1.690;2023-01-28T08:28:16;19.42;;;13.75;;
27612;SDS011;15036;48.094;-1.690;2023-01-28T08:30:41;21.85;;;13.90;;
27612;SDS011;15036;48.094;-1.690;2023-01-28T08:33:08;22.00;;;14.15;;
27612;SDS011;15036;48.094;-1.690;2023-01-28T08:35:35;19.67;;;13.98;;
27612;SDS011;15036;48.094;-1.690;2023-01-28T08:38:01;20.48;;;14.77;;
27612;SDS011;15036;48.094;-1.690;2023-01-28T08:40:28;19.75;;;13.68;;
27612;SDS011;15036;48.094;-1.690;2023-01-28T08:42:54;24.23;;;17.15;;
27612;SDS011;15036;48.094;-1.690;2023-01-28T08:45:21;19.80;;;14.43;;
27612;SDS011;15036;48.094;-1.690;2023-01-28T08:47:52;21.10;;;14.23;;
27612;SDS011;15036;48.094;-1.690;2023-01-28T08:50:31;19.02;;;14.63;;
27612;SDS011;15036;48.094;-1.690;2023-01-28T08:53:11;23.25;;;15.98;;
27612;SDS011;15036;48.094;-1.690;2023-01-28T08:55:38;23.80;;;16.33;;
27612;SDS011;15036;48.094;-1.690;2023-01-28T08:58:04;18.65;;;14.30;;
27612;SDS011;15036;48.094;-1.690;2023-01-28T09:00:32;21.02;;;14.68;;
27612;SDS011;15036;48.094;-1.690;2023-01-28T09:02:58;28.27;;;17.17;;
27612;SDS011;15036;48.094;-1.690;2023-01-28T09:05:23;35.72;;;22.15;;
27612;SDS011;15036;48.094;-1.690;2023-01-28T09:07:49;26.25;;;18.05;;
27612;SDS011;15036;48.094;-1.690;2023-01-28T09:10:15;49.53;;;28.38;;
27612;SDS011;15036;48.094;-1.690;2023-01-28T09:12:41;26.40;;;16.42;;
27612;SDS011;15036;48.094;-1.690;2023-01-28T09:15:07;22.10;;;15.52;;
27612;SDS011;15036;48.094;-1.690;2023-01-28T09:17:33;23.60;;;14.95;;
27612;SDS011;15036;48.094;-1.690;2023-01-28T09:19:58;19.48;;;14.85;;
27612;SDS011;15036;48.094;-1.690;2023-01-28T09:22:23;21.48;;;15.30;;
27612;SDS011;15036;48.094;-1.690;2023-01-28T09:24:49;22.10;;;15.00;;
27612;SDS011;15036;48.094;-1.690;2023-01-28T09:27:14;21.30;;;15.20;;
27612;SDS011;15036;48.094;-1.690;2023-01-28T09:29:39;25.35;;;17.00;;
27612;SDS011;15036;48.094;-1.690;2023-01-28T09:32:05;24.55;;;15.60;;
27612;SDS011;15036;48.094;-1.690;2023-01-28T09:34:33;21.85;;;15.70;;
27612;SDS011;15036;48.094;-1.690;2023-01-28T09:36:59;20.73;;;15.43;;
27612;SDS011;15036;48.094;-1.690;2023-01-28T09:39:25;22.63;;;15.25;;
27612;SDS011;15036;48.094;-1.690;2023-01-28T09:47:21;20.40;;;15.70;;
27612;SDS011;15036;48.094;-1.690;2023-01-28T09:49:51;20.77;;;15.13;;
27612;SDS011;15036;48.094;-1.690;2023-01-28T09:52:21;21.77;;;15.52;;
27612;SDS011;15036;48.094;-1.690;2023-01-28T09:54:58;20.45;;;15.65;;
27612;SDS011;15036;48.094;-1.690;2023-01-28T09:57:49;21.88;;;14.90;;
27612;SDS011;15036;48.094;-1.690;2023-01-28T10:00:18;21.17;;;15.57;;
27612;SDS011;15036;48.094;-1.690;2023-01-28T10:16:28;21.50;;;16.10;;
27612;SDS011;15036;48.094;-1.690;2023-01-28T10:19:09;21.85;;;15.43;;
27612;SDS011;15036;48.094;-1.690;2023-01-28T10:21:41;19.30;;;14.00;;
27612;SDS011;15036;48.094;-1.690;2023-01-28T10:26:49;19.50;;;14.70;;
27612;SDS011;15036;48.094;-1.690;2023-01-28T10:29:16;19.77;;;14.95;;
27612;SDS011;15036;48.094;-1.690;2023-01-28T10:31:53;21.45;;;15.40;;
27612;SDS011;15036;48.094;-1.690;2023-01-28T10:34:23;19.23;;;14.55;;
27612;SDS011;15036;48.094;-1.690;2023-01-28T10:36:48;25.90;;;16.00;;
27612;SDS011;15036;48.094;-1.690;2023-01-28T10:39:15;22.40;;;14.73;;
27612;SDS011;15036;48.094;-1.690;2023-01-28T10:41:45;19.65;;;14.18;;
27612;SDS011;15036;48.094;-1.690;2023-01-28T10:44:13;20.05;;;13.88;;
27612;SDS011;15036;48.094;-1.690;2023-01-28T10:46:48;21.27;;;14.82;;
27612;SDS011;15036;48.094;-1.690;2023-01-28T10:49:20;16.75;;;13.65;;
27612;SDS011;15036;48.094;-1.690;2023-01-28T10:51:50;21.77;;;15.07;;
27612;SDS011;15036;48.094;-1.690;2023-01-28T10:54:20;18.95;;;14.07;;
27612;SDS011;15036;48.094;-1.690;2023-01-28T10:56:48;19.33;;;15.38;;
27612;SDS011;15036;48.094;-1.690;2023-01-28T11:01:52;19.20;;;14.68;;
27612;SDS011;15036;48.094;-1.690;2023-01-28T11:04:22;20.73;;;14.85;;
27612;SDS011;15036;48.094;-1.690;2023-01-28T11:06:54;20.08;;;15.00;;
27612;SDS011;15036;48.094;-1.690;2023-01-28T11:09:37;17.40;;;13.23;;
27612;SDS011;15036;48.094;-1.690;2023-01-28T11:12:10;19.70;;;12.57;;
27612;SDS011;15036;48.094;-1.690;2023-01-28T11:17:16;18.55;;;12.70;;
27612;SDS011;15036;48.094;-1.690;2023-01-28T11:19:43;17.48;;;12.02;;
27612;SDS011;15036;48.094;-1.690;2023-01-28T11:22:32;14.35;;;12.15;;
27612;SDS011;15036;48.094;-1.690;2023-01-28T11:25:01;12.43;;;9.55;;
27612;SDS011;15036;48.094;-1.690;2023-01-28T11:27:45;13.73;;;9.52;;
27612;SDS011;15036;48.094;-1.690;2023-01-28T11:30:23;12.65;;;8.55;;
27612;SDS011;15036;48.094;-1.690;2023-01-28T11:32:58;13.65;;;8.68;;
27612;SDS011;15036;48.094;-1.690;2023-01-28T11:35:30;12.05;;;8.70;;
27612;SDS011;15036;48.094;-1.690;2023-01-28T11:37:56;10.38;;;7.63;;
27612;SDS011;15036;48.094;-1.690;2023-01-28T11:40:22;10.02;;;7.25;;
27612;SDS011;15036;48.094;-1.690;2023-01-28T11:42:51;14.10;;;7.72;;
27612;SDS011;15036;48.094;-1.690;2023-01-28T11:48:53;12.05;;;7.63;;
27612;SDS011;15036;48.094;-1.690;2023-01-28T11:54:30;10.80;;;6.68;;
27612;SDS011;15036;48.094;-1.690;2023-01-28T12:10:22;9.02;;;6.32;;
27612;SDS011;15036;48.094;-1.690;2023-01-28T12:21:28;8.85;;;6.10;;
27612;SDS011;15036;48.094;-1.690;2023-01-28T12:27:00;10.43;;;4.43;;
27612;SDS011;15036;48.094;-1.690;2023-01-28T12:43:05;8.35;;;4.15;;
27612;SDS011;15036;48.094;-1.690;2023-01-28T12:45:38;8.98;;;4.18;;
27612;SDS011;15036;48.094;-1.690;2023-01-28T12:50:35;6.75;;;4.28;;
27612;SDS011;15036;48.094;-1.690;2023-01-28T12:53:29;10.07;;;4.00;;
27612;SDS011;15036;48.094;-1.690;2023-01-28T12:56:07;9.68;;;3.72;;
27612;SDS011;15036;48.094;-1.690;2023-01-28T12:58:42;6.20;;;3.63;;
27612;SDS011;15036;48.094;-1.690;2023-01-28T13:01:15;8.27;;;3.70;;
27612;SDS011;15036;48.094;-1.690;2023-01-28T13:03:50;6.40;;;3.22;;
27612;SDS011;15036;48.094;-1.690;2023-01-28T13:09:19;7.68;;;4.00;;
27612;SDS011;15036;48.094;-1.690;2023-01-28T13:11:49;9.00;;;3.65;;
27612;SDS011;15036;48.094;-1.690;2023-01-28T13:14:17;9.85;;;4.53;;
27612;SDS011;15036;48.094;-1.690;2023-01-28T13:16:52;9.40;;;4.28;;
27612;SDS011;15036;48.094;-1.690;2023-01-28T13:21:43;7.13;;;4.50;;
27612;SDS011;15036;48.094;-1.690;2023-01-28T13:31:43;8.60;;;5.25;;
27612;SDS011;15036;48.094;-1.690;2023-01-28T13:34:26;11.52;;;5.55;;
27612;SDS011;15036;48.094;-1.690;2023-01-28T13:39:58;8.52;;;4.68;;
27612;SDS011;15036;48.094;-1.690;2023-01-28T13:42:26;9.85;;;4.75;;
27612;SDS011;15036;48.094;-1.690;2023-01-28T13:44:53;8.38;;;4.93;;
27612;SDS011;15036;48.094;-1.690;2023-01-28T13:47:32;9.48;;;5.20;;
27612;SDS011;15036;48.094;-1.690;2023-01-28T13:50:14;9.68;;;4.72;;
27612;SDS011;15036;48.094;-1.690;2023-01-28T14:17:42;11.05;;;4.95;;
27612;SDS011;15036;48.094;-1.690;2023-01-28T14:22:47;8.85;;;4.45;;
27612;SDS011;15036;48.094;-1.690;2023-01-28T14:25:26;10.07;;;5.40;;
27612;SDS011;15036;48.094;-1.690;2023-01-28T14:27:57;8.85;;;4.47;;
27612;SDS011;15036;48.094;-1.690;2023-01-28T14:33:12;9.00;;;4.70;;
27612;SDS011;15036;48.094;-1.690;2023-01-28T14:35:38;9.55;;;4.68;;
27612;SDS011;15036;48.094;-1.690;2023-01-28T14:38:12;10.00;;;5.22;;
27612;SDS011;15036;48.094;-1.690;2023-01-28T14:40:40;7.32;;;4.40;;
27612;SDS011;15036;48.094;-1.690;2023-01-28T14:43:08;11.80;;;5.22;;
27612;SDS011;15036;48.094;-1.690;2023-01-28T14:51:58;11.63;;;4.50;;
27612;SDS011;15036;48.094;-1.690;2023-01-28T14:59:42;5.55;;;3.92;;
27612;SDS011;15036;48.094;-1.690;2023-01-28T15:02:14;7.35;;;3.88;;
27612;SDS011;15036;48.094;-1.690;2023-01-28T15:04:44;8.02;;;4.07;;
27612;SDS011;15036;48.094;-1.690;2023-01-28T15:07:20;8.38;;;4.13;;
27612;SDS011;15036;48.094;-1.690;2023-01-28T15:10:35;7.68;;;3.42;;
27612;SDS011;15036;48.094;-1.690;2023-01-28T15:12:51;6.80;;;3.45;;
27612;SDS011;15036;48.094;-1.690;2023-01-28T15:15:29;6.45;;;3.20;;
27612;SDS011;15036;48.094;-1.690;2023-01-28T15:18:02;8.45;;;4.05;;
27612;SDS011;15036;48.094;-1.690;2023-01-28T15:20:28;5.45;;;3.40;;
27612;SDS011;15036;48.094;-1.690;2023-01-28T15:22:55;6.10;;;3.35;;
27612;SDS011;15036;48.094;-1.690;2023-01-28T15:25:21;8.02;;;3.50;;
27612;SDS011;15036;48.094;-1.690;2023-01-28T15:30:20;8.55;;;3.75;;
27612;SDS011;15036;48.094;-1.690;2023-01-28T15:32:55;5.32;;;3.22;;
27612;SDS011;15036;48.094;-1.690;2023-01-28T15:35:31;6.18;;;3.30;;
27612;SDS011;15036;48.094;-1.690;2023-01-28T15:37:59;8.40;;;3.47;;
27612;SDS011;15036;48.094;-1.690;2023-01-28T15:40:26;6.28;;;3.42;;
27612;SDS011;15036;48.094;-1.690;2023-01-28T15:42:54;6.97;;;3.30;;
27612;SDS011;15036;48.094;-1.690;2023-01-28T15:45:23;7.78;;;3.40;;
27612;SDS011;15036;48.094;-1.690;2023-01-28T15:47:50;9.45;;;4.03;;
27612;SDS011;15036;48.094;-1.690;2023-01-28T15:50:21;6.22;;;3.58;;
27612;SDS011;15036;48.094;-1.690;2023-01-28T15:52:48;5.95;;;3.90;;
27612;SDS011;15036;48.094;-1.690;2023-01-28T15:57:54;8.10;;;3.80;;
27612;SDS011;15036;48.094;-1.690;2023-01-28T16:00:19;8.93;;;5.07;;
27612;SDS011;15036;48.094;-1.690;2023-01-28T16:02:50;6.53;;;3.50;;
27612;SDS011;15036;48.094;-1.690;2023-01-28T16:07:48;5.70;;;3.40;;
27612;SDS011;15036;48.094;-1.690;2023-01-28T16:10:21;6.32;;;3.67;;
27612;SDS011;15036;48.094;-1.690;2023-01-28T16:13:34;6.72;;;3.53;;
27612;SDS011;15036;48.094;-1.690;2023-01-28T16:15:35;6.95;;;3.65;;
27612;SDS011;15036;48.094;-1.690;2023-01-28T16:18:03;4.90;;;3.30;;
27612;SDS011;15036;48.094;-1.690;2023-01-28T16:20:30;6.13;;;3.72;;
27612;SDS011;15036;48.094;-1.690;2023-01-28T16:22:57;6.65;;;2.80;;
27612;SDS011;15036;48.094;-1.690;2023-01-28T16:25:31;6.53;;;3.28;;
27612;SDS011;15036;48.094;-1.690;2023-01-28T16:27:59;5.43;;;2.92;;
27612;SDS011;15036;48.094;-1.690;2023-01-28T16:30:25;5.78;;;3.20;;
27612;SDS011;15036;48.094;-1.690;2023-01-28T16:32:51;5.72;;;3.30;;
27612;SDS011;15036;48.094;-1.690;2023-01-28T16:37:47;6.72;;;3.60;;
27612;SDS011;15036;48.094;-1.690;2023-01-28T16:40:14;7.05;;;3.50;;
27612;SDS011;15036;48.094;-1.690;2023-01-28T16:42:41;6.80;;;3.20;;
27612;SDS011;15036;48.094;-1.690;2023-01-28T16:45:13;6.88;;;3.40;;
27612;SDS011;15036;48.094;-1.690;2023-01-28T16:47:43;6.18;;;3.10;;
27612;SDS011;15036;48.094;-1.690;2023-01-28T16:50:10;6.80;;;3.42;;
27612;SDS011;15036;48.094;-1.690;2023-01-28T16:52:36;9.88;;;4.43;;
27612;SDS011;15036;48.094;-1.690;2023-01-28T16:55:02;7.18;;;3.83;;
27612;SDS011;15036;48.094;-1.690;2023-01-28T16:57:28;7.72;;;3.70;;
27612;SDS011;15036;48.094;-1.690;2023-01-28T16:59:57;7.82;;;3.63;;
27612;SDS011;15036;48.094;-1.690;2023-01-28T17:02:22;8.18;;;4.25;;
27612;SDS011;15036;48.094;-1.690;2023-01-28T17:04:48;6.40;;;3.95;;
27612;SDS011;15036;48.094;-1.690;2023-01-28T17:07:13;8.50;;;3.63;;
27612;SDS011;15036;48.094;-1.690;2023-01-28T17:09:39;9.07;;;3.92;;
27612;SDS011;15036;48.094;-1.690;2023-01-28T17:12:04;8.85;;;4.20;;
27612;SDS011;15036;48.094;-1.690;2023-01-28T17:14:30;8.90;;;4.20;;
27612;SDS011;15036;48.094;-1.690;2023-01-28T17:16:55;8.52;;;4.30;;
27612;SDS011;15036;48.094;-1.690;2023-01-28T17:19:21;8.15;;;4.68;;
27612;SDS011;15036;48.094;-1.690;2023-01-28T17:21:46;7.22;;;5.10;;
27612;SDS011;15036;48.094;-1.690;2023-01-28T17:24:11;10.40;;;4.80;;
27612;SDS011;15036;48.094;-1.690;2023-01-28T17:26:37;11.02;;;4.38;;